createdAt,value
2018-01-02T17:31:57.088Z,152
2018-01-02T17:32:57.048Z,155
2018-01-02T17:33:57.061Z,160
2018-01-02T17:34:57.431Z,160
2018-01-02T17:35:57.359Z,144
2018-01-02T17:36:57.394Z,145
2018-01-02T17:37:57.402Z,124
2018-01-02T17:38:57.502Z,138
2018-01-02T18:14:30.570Z,128
2018-01-02T18:15:30.534Z,111
2018-01-02T18:16:30.606Z,111
2018-01-02T19:17:53.845Z,96
2018-01-02T19:18:08.815Z,107
2018-01-02T19:18:23.785Z,107
2018-01-02T19:18:38.812Z,107
2018-01-02T19:19:08.168Z,82
2018-01-02T19:19:22.459Z,70
2018-01-02T19:19:39.909Z,90
2018-01-02T19:19:52.461Z,90
2018-01-02T19:20:07.838Z,90
2018-01-02T19:20:22.469Z,107
2018-01-02T19:20:37.762Z,107
2018-01-02T19:20:52.460Z,106
2018-01-02T19:21:07.587Z,105
2018-01-02T19:21:37.371Z,107
2018-01-02T19:21:52.029Z,108
2018-01-02T19:22:07.479Z,30
2018-01-02T19:22:22.027Z,106
2018-01-02T19:22:37.710Z,107
2018-01-02T19:23:09.645Z,106
2018-01-02T19:23:23.969Z,106
2018-01-02T19:23:39.101Z,106
2018-01-02T19:24:06.712Z,96
2018-01-02T19:24:21.140Z,106
2018-01-02T19:24:36.502Z,106
2018-01-02T19:24:51.079Z,106
2018-01-02T19:25:22.437Z,16
2018-01-02T19:25:37.923Z,30
2018-01-02T19:25:52.435Z,96
2018-01-02T19:26:08.123Z,108
2018-01-02T19:26:22.456Z,98
2018-01-02T19:27:36.852Z,92
2018-01-02T19:28:34.822Z,92
2018-01-02T19:29:34.697Z,107
2018-01-02T19:32:39.634Z,100
2018-01-02T19:33:39.160Z,100
2018-01-02T19:34:39.680Z,90
2018-01-02T19:35:40.026Z,85
2018-01-02T19:39:54.586Z,105
2018-01-02T19:41:29.805Z,95
2018-01-02T19:43:00.165Z,111
2018-01-02T19:43:59.741Z,100
2018-01-02T19:45:00.336Z,100
2018-01-02T19:47:35.246Z,106
2018-01-02T19:48:36.798Z,100
2018-01-02T19:49:33.769Z,100
2018-01-02T19:50:33.594Z,101
2018-01-02T19:51:34.555Z,101
2018-01-02T19:52:33.473Z,102
2018-01-02T19:53:33.418Z,114
2018-01-02T19:54:34.628Z,105
2018-01-02T19:55:33.289Z,105
2018-01-02T19:56:34.787Z,106
2018-01-02T19:57:33.790Z,107
2018-01-02T20:01:46.068Z,106
2018-01-02T20:02:44.498Z,107
2018-01-02T20:07:09.336Z,107
2018-01-02T20:08:08.779Z,125
2018-01-02T20:09:09.459Z,111
2018-01-02T20:10:17.729Z,123
2018-01-02T20:12:12.350Z,123
2018-01-02T20:13:12.353Z,123
2018-01-02T20:14:12.525Z,123
2018-01-02T20:15:13.881Z,123
2018-01-02T20:16:12.259Z,123
2018-01-02T20:17:12.550Z,122
2018-01-02T20:18:12.248Z,123
2018-01-02T20:19:12.381Z,122
2018-01-02T20:20:16.547Z,122
2018-01-02T20:21:12.254Z,123
2018-01-02T20:22:12.322Z,122
2018-01-02T20:23:12.398Z,122
2018-01-02T20:24:12.428Z,122
2018-01-02T20:25:12.422Z,122
2018-01-02T20:26:12.452Z,122
2018-01-02T20:27:12.392Z,122
2018-01-02T20:28:16.234Z,122
2018-01-02T20:29:12.573Z,122
2018-01-02T20:30:12.302Z,122
2018-01-02T20:31:12.473Z,122
2018-01-02T20:32:12.583Z,121
2018-01-02T20:33:12.383Z,120
2018-01-02T20:34:12.344Z,119
2018-01-02T20:35:12.622Z,118
2018-01-02T20:36:15.198Z,116
2018-01-02T20:37:12.681Z,115
2018-01-02T20:38:12.514Z,114
2018-01-02T20:39:13.831Z,113
2018-01-02T20:40:13.816Z,111
2018-01-02T20:41:14.697Z,110
2018-01-02T20:42:12.783Z,109
2018-01-02T20:43:17.683Z,108
2018-01-02T20:44:12.853Z,107
2018-01-02T20:45:12.241Z,106
2018-01-02T20:46:12.715Z,106
2018-01-02T20:47:13.115Z,105
2018-01-02T20:48:12.934Z,104
2018-01-02T20:49:12.297Z,103
2018-01-02T20:50:12.568Z,100
2018-01-02T20:51:12.366Z,105
2018-01-02T20:53:16.107Z,0
2018-01-02T20:54:15.267Z,0
2018-01-02T20:55:16.231Z,0
2018-01-02T20:56:16.433Z,0
2018-01-02T20:57:15.587Z,0
2018-01-02T20:58:18.620Z,0
2018-01-02T20:59:15.728Z,0
2018-01-02T21:00:15.234Z,0
2018-01-02T21:01:15.308Z,0
2018-01-02T21:02:15.565Z,0
2018-01-02T21:03:18.327Z,0
2018-01-02T21:04:17.729Z,0
2018-01-02T21:05:15.739Z,0
2018-01-02T21:06:15.628Z,0
2018-01-02T21:07:17.901Z,0
2018-01-02T21:08:15.488Z,0
2018-01-02T21:09:17.790Z,0
2018-01-02T21:10:15.571Z,0
2018-01-02T21:11:15.530Z,0
2018-01-02T21:12:16.749Z,0
2018-01-02T21:13:16.783Z,0
2018-01-02T21:14:15.370Z,0
2018-01-02T21:15:17.750Z,0
2018-01-02T21:16:15.711Z,0
2018-01-02T21:17:16.591Z,0
2018-01-02T21:18:15.711Z,0
2018-01-02T21:19:15.700Z,0
2018-01-02T21:20:15.712Z,0
2018-01-02T21:21:15.248Z,0
2018-01-02T21:22:19.048Z,0
2018-01-02T21:23:19.916Z,0
2018-01-02T21:24:15.656Z,0
2018-01-02T21:25:17.140Z,0
2018-01-02T21:26:15.894Z,0
2018-01-02T21:27:15.812Z,0
2018-01-02T21:28:17.123Z,0
2018-01-02T21:29:17.033Z,0
2018-01-02T21:30:16.829Z,0
2018-01-02T21:31:15.824Z,0
2018-01-02T21:32:15.763Z,0
2018-01-02T21:33:15.305Z,0
2018-01-02T21:34:15.903Z,2
2018-01-02T21:35:15.467Z,35
2018-01-02T21:36:15.617Z,32
2018-01-02T21:37:18.620Z,0
2018-01-02T21:38:17.006Z,0
2018-01-02T21:39:20.106Z,0
2018-01-02T21:40:16.369Z,0
2018-01-02T21:41:15.994Z,0
2018-01-02T21:42:15.694Z,0
2018-01-02T21:43:16.478Z,0
2018-01-02T21:44:17.012Z,0
2018-01-02T21:45:17.791Z,0
2018-01-02T21:46:15.596Z,0
2018-01-02T21:47:15.715Z,0
2018-01-02T21:48:15.540Z,0
2018-01-02T21:49:16.457Z,0
2018-01-02T21:50:15.896Z,0
2018-01-02T21:51:15.153Z,0
2018-01-02T21:52:16.308Z,0
2018-01-02T21:53:16.995Z,0
2018-01-02T21:54:15.402Z,0
2018-01-02T21:55:15.166Z,0
2018-01-02T21:56:16.970Z,0
2018-01-02T21:57:15.754Z,0
2018-01-02T21:58:17.651Z,0
2018-01-02T21:59:15.357Z,0
2018-01-02T22:00:15.416Z,0
2018-01-02T22:01:16.157Z,0
2018-01-02T22:02:16.263Z,0
2018-01-02T22:03:15.708Z,0
2018-01-02T22:04:15.663Z,0
2018-01-02T22:05:16.115Z,0
2018-01-02T22:06:15.200Z,0
2018-01-02T22:07:15.981Z,0
2018-01-02T22:08:15.251Z,0
2018-01-02T22:09:15.507Z,0
2018-01-02T22:10:15.277Z,0
2018-01-02T22:11:15.519Z,0
2018-01-02T22:12:16.170Z,0
2018-01-02T22:13:18.062Z,0
2018-01-02T22:14:15.450Z,0
2018-01-02T22:15:15.560Z,0
2018-01-02T22:16:15.788Z,0
2018-01-02T22:17:17.925Z,0
2018-01-02T22:18:15.561Z,0
2018-01-02T22:19:15.491Z,0
2018-01-02T22:20:15.428Z,0
2018-01-02T22:21:15.701Z,0
2018-01-02T22:22:17.298Z,0
2018-01-02T22:23:17.761Z,0
2018-01-02T22:24:15.536Z,0
2018-01-02T22:25:15.653Z,0
2018-01-02T22:26:15.882Z,0
2018-01-02T22:27:15.382Z,0
2018-01-02T22:28:18.760Z,0
2018-01-02T22:29:15.512Z,0
2018-01-02T22:30:15.972Z,0
2018-01-02T22:31:26.282Z,0
2018-01-02T22:32:15.531Z,0
2018-01-02T22:33:15.364Z,0
2018-01-02T22:34:15.443Z,0
2018-01-02T22:35:17.935Z,0
2018-01-02T22:36:15.439Z,0
2018-01-02T22:37:16.304Z,0
2018-01-02T22:38:15.769Z,0
2018-01-02T22:39:16.125Z,0
2018-01-02T22:40:15.403Z,0
2018-01-02T22:41:15.448Z,0
2018-01-02T22:42:18.885Z,0
2018-01-02T22:43:16.286Z,0
2018-01-02T22:44:17.799Z,0
2018-01-02T22:45:15.715Z,0
2018-01-02T22:46:16.329Z,0
2018-01-02T22:47:15.556Z,0
2018-01-02T22:48:18.963Z,0
2018-01-02T22:49:16.787Z,0
2018-01-02T22:50:15.522Z,0
2018-01-02T22:51:17.847Z,0
2018-01-02T22:52:16.497Z,0
2018-01-02T22:53:15.776Z,0
2018-01-02T22:54:18.054Z,0
2018-01-02T22:56:27.238Z,0
2018-01-02T22:57:27.636Z,0
2018-01-02T22:58:27.243Z,0
2018-01-02T22:59:27.221Z,0
2018-01-02T23:00:27.220Z,0
2018-01-02T23:01:40.387Z,0
2018-01-02T23:02:27.219Z,0
2018-01-02T23:03:28.112Z,0
2018-01-02T23:04:27.659Z,0
2018-01-02T23:05:27.231Z,0
2018-01-02T23:06:27.229Z,0
2018-01-02T23:07:27.235Z,0
2018-01-02T23:08:27.264Z,0
2018-01-02T23:09:27.231Z,0
2018-01-02T23:10:27.229Z,0
2018-01-02T23:11:27.231Z,0
2018-01-02T23:12:27.242Z,0
2018-01-02T23:13:27.253Z,0
2018-01-02T23:14:27.230Z,0
2018-01-02T23:15:27.252Z,0
2018-01-02T23:16:27.243Z,0
2018-01-02T23:17:27.242Z,0
2018-01-02T23:18:27.257Z,0
2018-01-02T23:19:27.239Z,0
2018-01-02T23:20:27.245Z,0
2018-01-02T23:21:27.248Z,0
2018-01-02T23:22:27.236Z,0
2018-01-02T23:23:27.290Z,0
2018-01-02T23:24:27.240Z,0
2018-01-02T23:25:27.250Z,0
2018-01-02T23:26:27.257Z,0
2018-01-02T23:27:27.278Z,0
2018-01-02T23:28:27.265Z,0
2018-01-02T23:29:27.252Z,0
2018-01-02T23:30:27.242Z,0
2018-01-02T23:31:27.250Z,0
2018-01-02T23:32:27.249Z,0
2018-01-02T23:33:27.297Z,0
2018-01-02T23:34:27.255Z,0
2018-01-02T23:35:27.259Z,0
2018-01-02T23:36:27.261Z,0
2018-01-02T23:37:27.311Z,0
2018-01-02T23:38:27.277Z,0
2018-01-02T23:39:27.311Z,0
2018-01-02T23:40:27.260Z,0
2018-01-02T23:41:27.251Z,0
2018-01-02T23:42:30.855Z,0
2018-01-02T23:43:27.279Z,0
2018-01-02T23:44:27.310Z,0
2018-01-02T23:45:31.714Z,0
2018-01-02T23:46:41.657Z,0
2018-01-02T23:47:27.278Z,0
2018-01-02T23:48:27.265Z,0
2018-01-02T23:49:27.271Z,0
2018-01-02T23:50:27.287Z,0
2018-01-02T23:51:27.271Z,0
2018-01-02T23:52:27.267Z,0
2018-01-02T23:53:27.325Z,0
2018-01-02T23:54:27.263Z,0
2018-01-02T23:55:27.263Z,0
2018-01-02T23:56:27.279Z,0
2018-01-02T23:57:27.290Z,0
2018-01-02T23:58:27.291Z,0
2018-01-02T23:59:27.276Z,0
